sensor_id;sensor_type;location;lat;lon;timestamp;temperature;humidity
15343;DHT22;7771;48.478;8.936;2023-11-21T00:00:47;10.00;99.90
15343;DHT22;7771;48.478;8.936;2023-11-21T00:03:14;10.00;99.90
15343;DHT22;7771;48.478;8.936;2023-11-21T00:08:09;10.00;99.90
15343;DHT22;7771;48.478;8.936;2023-11-21T00:10:36;10.10;99.90
15343;DHT22;7771;48.478;8.936;2023-11-21T00:13:03;10.10;99.90
15343;DHT22;7771;48.478;8.936;2023-11-21T00:15:31;10.10;99.90
15343;DHT22;7771;48.478;8.936;2023-11-21T00:17:59;10.10;99.90
15343;DHT22;7771;48.478;8.936;2023-11-21T00:20:25;10.20;99.90
15343;DHT22;7771;48.478;8.936;2023-11-21T00:22:53;10.20;99.90
15343;DHT22;7771;48.478;8.936;2023-11-21T00:25:19;10.20;99.90
15343;DHT22;7771;48.478;8.936;2023-11-21T00:27:47;10.20;99.90
15343;DHT22;7771;48.478;8.936;2023-11-21T00:30:14;10.20;99.90
15343;DHT22;7771;48.478;8.936;2023-11-21T00:32:41;10.20;99.90
15343;DHT22;7771;48.478;8.936;2023-11-21T00:35:08;10.20;99.90
15343;DHT22;7771;48.478;8.936;2023-11-21T00:37:35;10.20;99.90
15343;DHT22;7771;48.478;8.936;2023-11-21T00:40:02;10.20;99.90
15343;DHT22;7771;48.478;8.936;2023-11-21T00:42:31;10.10;99.90
15343;DHT22;7771;48.478;8.936;2023-11-21T00:44:59;10.20;99.90
15343;DHT22;7771;48.478;8.936;2023-11-21T00:47:27;10.20;99.90
15343;DHT22;7771;48.478;8.936;2023-11-21T00:49:56;10.10;99.90
15343;DHT22;7771;48.478;8.936;2023-11-21T00:52:24;10.20;99.90
15343;DHT22;7771;48.478;8.936;2023-11-21T00:54:50;10.10;99.90
15343;DHT22;7771;48.478;8.936;2023-11-21T00:57:18;10.10;99.90
15343;DHT22;7771;48.478;8.936;2023-11-21T00:59:44;10.10;99.90
15343;DHT22;7771;48.478;8.936;2023-11-21T01:02:11;10.10;99.90
15343;DHT22;7771;48.478;8.936;2023-11-21T01:04:37;10.20;99.90
15343;DHT22;7771;48.478;8.936;2023-11-21T01:09:32;10.20;99.90
15343;DHT22;7771;48.478;8.936;2023-11-21T01:11:59;10.20;99.90
15343;DHT22;7771;48.478;8.936;2023-11-21T01:14:26;10.10;99.90
15343;DHT22;7771;48.478;8.936;2023-11-21T01:16:53;10.20;99.90
15343;DHT22;7771;48.478;8.936;2023-11-21T01:19:19;10.20;99.90
15343;DHT22;7771;48.478;8.936;2023-11-21T01:21:46;10.20;99.90
15343;DHT22;7771;48.478;8.936;2023-11-21T01:24:13;10.20;99.90
15343;DHT22;7771;48.478;8.936;2023-11-21T01:26:39;10.20;99.90
15343;DHT22;7771;48.478;8.936;2023-11-21T01:29:06;10.20;99.90
15343;DHT22;7771;48.478;8.936;2023-11-21T01:31:34;10.20;99.90
15343;DHT22;7771;48.478;8.936;2023-11-21T01:34:01;10.20;99.90
15343;DHT22;7771;48.478;8.936;2023-11-21T01:36:31;10.20;99.90
15343;DHT22;7771;48.478;8.936;2023-11-21T01:39:01;10.20;99.90
15343;DHT22;7771;48.478;8.936;2023-11-21T01:41:29;10.20;99.90
15343;DHT22;7771;48.478;8.936;2023-11-21T01:43:57;10.20;99.90
15343;DHT22;7771;48.478;8.936;2023-11-21T01:48:51;10.20;99.90
15343;DHT22;7771;48.478;8.936;2023-11-21T01:51:18;10.30;99.90
15343;DHT22;7771;48.478;8.936;2023-11-21T01:53:45;10.30;99.90
15343;DHT22;7771;48.478;8.936;2023-11-21T01:56:12;10.30;99.90
15343;DHT22;7771;48.478;8.936;2023-11-21T01:58:39;10.30;99.90
15343;DHT22;7771;48.478;8.936;2023-11-21T02:01:06;10.30;99.90
15343;DHT22;7771;48.478;8.936;2023-11-21T02:03:33;10.30;99.90
15343;DHT22;7771;48.478;8.936;2023-11-21T02:06:00;10.30;99.90
15343;DHT22;7771;48.478;8.936;2023-11-21T02:08:27;10.30;99.90
15343;DHT22;7771;48.478;8.936;2023-11-21T02:10:54;10.30;99.90
15343;DHT22;7771;48.478;8.936;2023-11-21T02:13:21;10.30;99.90
15343;DHT22;7771;48.478;8.936;2023-11-21T02:18:15;10.30;99.90
15343;DHT22;7771;48.478;8.936;2023-11-21T02:20:42;10.30;99.90
15343;DHT22;7771;48.478;8.936;2023-11-21T02:23:09;10.20;99.90
15343;DHT22;7771;48.478;8.936;2023-11-21T02:25:36;10.20;99.90
15343;DHT22;7771;48.478;8.936;2023-11-21T02:28:03;10.20;99.90
15343;DHT22;7771;48.478;8.936;2023-11-21T02:32:58;10.20;99.90
15343;DHT22;7771;48.478;8.936;2023-11-21T02:35:25;10.10;99.90
15343;DHT22;7771;48.478;8.936;2023-11-21T02:37:52;10.10;99.90
15343;DHT22;7771;48.478;8.936;2023-11-21T02:40:19;10.10;99.90
15343;DHT22;7771;48.478;8.936;2023-11-21T02:42:47;10.10;99.90
15343;DHT22;7771;48.478;8.936;2023-11-21T02:45:15;10.20;99.90
15343;DHT22;7771;48.478;8.936;2023-11-21T02:47:44;10.20;99.90
15343;DHT22;7771;48.478;8.936;2023-11-21T02:50:11;10.10;99.90
15343;DHT22;7771;48.478;8.936;2023-11-21T02:52:39;10.20;99.90
15343;DHT22;7771;48.478;8.936;2023-11-21T02:55:06;10.10;99.90
15343;DHT22;7771;48.478;8.936;2023-11-21T02:57:33;10.10;99.90
15343;DHT22;7771;48.478;8.936;2023-11-21T03:00:01;10.10;99.90
15343;DHT22;7771;48.478;8.936;2023-11-21T03:04:55;10.10;99.90
15343;DHT22;7771;48.478;8.936;2023-11-21T03:07:23;10.20;99.90
15343;DHT22;7771;48.478;8.936;2023-11-21T03:09:49;10.20;99.90
15343;DHT22;7771;48.478;8.936;2023-11-21T03:12:16;10.10;99.90
15343;DHT22;7771;48.478;8.936;2023-11-21T03:14:43;10.10;99.90
15343;DHT22;7771;48.478;8.936;2023-11-21T03:17:11;10.10;99.90
15343;DHT22;7771;48.478;8.936;2023-11-21T03:19:38;10.00;99.90
15343;DHT22;7771;48.478;8.936;2023-11-21T03:22:04;10.00;99.90
15343;DHT22;7771;48.478;8.936;2023-11-21T03:24:31;10.00;99.90
15343;DHT22;7771;48.478;8.936;2023-11-21T03:26:58;10.00;99.90
15343;DHT22;7771;48.478;8.936;2023-11-21T03:29:25;10.00;99.90
15343;DHT22;7771;48.478;8.936;2023-11-21T03:31:51;9.90;99.90
15343;DHT22;7771;48.478;8.936;2023-11-21T03:34:24;9.90;99.90
15343;DHT22;7771;48.478;8.936;2023-11-21T03:36:50;9.80;99.90
15343;DHT22;7771;48.478;8.936;2023-11-21T03:39:16;9.80;99.90
15343;DHT22;7771;48.478;8.936;2023-11-21T03:41:44;9.80;99.90
15343;DHT22;7771;48.478;8.936;2023-11-21T03:44:10;9.80;99.90
15343;DHT22;7771;48.478;8.936;2023-11-21T03:46:38;9.90;99.90
15343;DHT22;7771;48.478;8.936;2023-11-21T03:49:05;9.90;99.90
15343;DHT22;7771;48.478;8.936;2023-11-21T03:51:33;9.90;99.90
15343;DHT22;7771;48.478;8.936;2023-11-21T03:53:59;9.90;99.90
15343;DHT22;7771;48.478;8.936;2023-11-21T03:56:26;9.90;99.90
15343;DHT22;7771;48.478;8.936;2023-11-21T03:58:52;9.90;99.90
15343;DHT22;7771;48.478;8.936;2023-11-21T04:01:22;9.90;99.90
15343;DHT22;7771;48.478;8.936;2023-11-21T04:03:49;10.00;99.90
15343;DHT22;7771;48.478;8.936;2023-11-21T04:06:16;9.90;99.90
15343;DHT22;7771;48.478;8.936;2023-11-21T04:08:44;9.90;99.90
15343;DHT22;7771;48.478;8.936;2023-11-21T04:11:10;9.90;99.90
15343;DHT22;7771;48.478;8.936;2023-11-21T04:16:06;9.90;99.90
15343;DHT22;7771;48.478;8.936;2023-11-21T04:18:33;9.90;99.90
15343;DHT22;7771;48.478;8.936;2023-11-21T04:21:01;9.90;99.90
15343;DHT22;7771;48.478;8.936;2023-11-21T04:23:28;9.90;99.90
15343;DHT22;7771;48.478;8.936;2023-11-21T04:25:54;9.90;99.90
15343;DHT22;7771;48.478;8.936;2023-11-21T04:28:21;9.90;99.90
15343;DHT22;7771;48.478;8.936;2023-11-21T04:30:47;9.90;99.90
15343;DHT22;7771;48.478;8.936;2023-11-21T04:33:14;9.90;99.90
15343;DHT22;7771;48.478;8.936;2023-11-21T04:35:41;9.90;99.90
15343;DHT22;7771;48.478;8.936;2023-11-21T04:38:08;9.90;99.90
15343;DHT22;7771;48.478;8.936;2023-11-21T04:40:36;9.90;99.90
15343;DHT22;7771;48.478;8.936;2023-11-21T04:43:03;9.90;99.90
15343;DHT22;7771;48.478;8.936;2023-11-21T04:45:30;9.90;99.90
15343;DHT22;7771;48.478;8.936;2023-11-21T04:47:58;9.90;99.90
15343;DHT22;7771;48.478;8.936;2023-11-21T04:50:26;9.90;99.90
15343;DHT22;7771;48.478;8.936;2023-11-21T04:52:53;9.90;99.90
15343;DHT22;7771;48.478;8.936;2023-11-21T04:55:20;9.90;99.90
15343;DHT22;7771;48.478;8.936;2023-11-21T04:57:48;9.90;99.90
15343;DHT22;7771;48.478;8.936;2023-11-21T05:00:15;9.90;99.90
15343;DHT22;7771;48.478;8.936;2023-11-21T05:02:42;9.90;99.90
15343;DHT22;7771;48.478;8.936;2023-11-21T05:05:10;9.90;99.90
15343;DHT22;7771;48.478;8.936;2023-11-21T05:07:37;9.90;99.90
15343;DHT22;7771;48.478;8.936;2023-11-21T05:10:05;9.90;99.90
15343;DHT22;7771;48.478;8.936;2023-11-21T05:12:35;9.90;99.90
15343;DHT22;7771;48.478;8.936;2023-11-21T05:17:37;10.00;99.90
15343;DHT22;7771;48.478;8.936;2023-11-21T05:20:05;10.00;99.90
15343;DHT22;7771;48.478;8.936;2023-11-21T05:22:32;10.00;99.90
15343;DHT22;7771;48.478;8.936;2023-11-21T05:24:59;10.00;99.90
15343;DHT22;7771;48.478;8.936;2023-11-21T05:29:53;10.00;99.90
15343;DHT22;7771;48.478;8.936;2023-11-21T05:32:20;10.10;99.90
15343;DHT22;7771;48.478;8.936;2023-11-21T05:34:47;10.10;99.90
15343;DHT22;7771;48.478;8.936;2023-11-21T05:37:13;10.10;99.90
15343;DHT22;7771;48.478;8.936;2023-11-21T05:39:41;10.10;99.90
15343;DHT22;7771;48.478;8.936;2023-11-21T05:42:07;10.10;99.90
15343;DHT22;7771;48.478;8.936;2023-11-21T05:44:34;10.10;99.90
15343;DHT22;7771;48.478;8.936;2023-11-21T05:47:01;10.10;99.90
15343;DHT22;7771;48.478;8.936;2023-11-21T05:49:27;10.10;99.90
15343;DHT22;7771;48.478;8.936;2023-11-21T05:51:55;10.10;99.90
15343;DHT22;7771;48.478;8.936;2023-11-21T05:54:22;10.20;99.90
15343;DHT22;7771;48.478;8.936;2023-11-21T05:56:49;10.20;99.90
15343;DHT22;7771;48.478;8.936;2023-11-21T05:59:16;10.20;99.90
15343;DHT22;7771;48.478;8.936;2023-11-21T06:01:43;10.20;99.90
15343;DHT22;7771;48.478;8.936;2023-11-21T06:04:12;10.10;99.90
15343;DHT22;7771;48.478;8.936;2023-11-21T06:06:38;10.10;99.90
15343;DHT22;7771;48.478;8.936;2023-11-21T06:09:05;10.10;99.90
15343;DHT22;7771;48.478;8.936;2023-11-21T06:11:32;10.00;99.90
15343;DHT22;7771;48.478;8.936;2023-11-21T06:13:59;10.00;99.90
15343;DHT22;7771;48.478;8.936;2023-11-21T06:18:54;9.90;99.90
15343;DHT22;7771;48.478;8.936;2023-11-21T06:21:21;9.90;99.90
15343;DHT22;7771;48.478;8.936;2023-11-21T06:23:49;9.80;99.90
15343;DHT22;7771;48.478;8.936;2023-11-21T06:26:16;9.80;99.90
15343;DHT22;7771;48.478;8.936;2023-11-21T06:28:43;9.80;99.90
15343;DHT22;7771;48.478;8.936;2023-11-21T06:33:38;9.80;99.90
15343;DHT22;7771;48.478;8.936;2023-11-21T06:36:05;9.80;99.90
15343;DHT22;7771;48.478;8.936;2023-11-21T06:38:31;9.80;99.90
15343;DHT22;7771;48.478;8.936;2023-11-21T06:40:58;9.80;99.90
15343;DHT22;7771;48.478;8.936;2023-11-21T06:43:25;9.80;99.90
15343;DHT22;7771;48.478;8.936;2023-11-21T06:45:51;9.80;99.90
15343;DHT22;7771;48.478;8.936;2023-11-21T06:48:18;9.80;99.90
15343;DHT22;7771;48.478;8.936;2023-11-21T06:50:45;9.90;99.90
15343;DHT22;7771;48.478;8.936;2023-11-21T06:55:40;9.90;99.90
15343;DHT22;7771;48.478;8.936;2023-11-21T06:58:07;9.90;99.90
15343;DHT22;7771;48.478;8.936;2023-11-21T07:03:01;9.90;99.90
15343;DHT22;7771;48.478;8.936;2023-11-21T07:05:28;9.80;99.90
15343;DHT22;7771;48.478;8.936;2023-11-21T07:07:54;9.90;99.90
15343;DHT22;7771;48.478;8.936;2023-11-21T07:10:21;9.90;99.90
15343;DHT22;7771;48.478;8.936;2023-11-21T07:12:48;10.00;99.90
15343;DHT22;7771;48.478;8.936;2023-11-21T07:15:15;10.00;99.90
15343;DHT22;7771;48.478;8.936;2023-11-21T07:17:42;10.00;99.90
15343;DHT22;7771;48.478;8.936;2023-11-21T07:20:08;10.00;99.90
15343;DHT22;7771;48.478;8.936;2023-11-21T07:22:36;10.00;99.90
15343;DHT22;7771;48.478;8.936;2023-11-21T07:25:04;10.00;99.90
15343;DHT22;7771;48.478;8.936;2023-11-21T07:27:31;10.00;99.90
15343;DHT22;7771;48.478;8.936;2023-11-21T07:29:58;10.00;99.90
15343;DHT22;7771;48.478;8.936;2023-11-21T07:32:26;10.00;99.90
15343;DHT22;7771;48.478;8.936;2023-11-21T07:34:53;10.10;99.90
15343;DHT22;7771;48.478;8.936;2023-11-21T07:37:20;10.10;99.90
15343;DHT22;7771;48.478;8.936;2023-11-21T07:39:46;10.10;99.90
15343;DHT22;7771;48.478;8.936;2023-11-21T07:42:14;10.10;99.90
15343;DHT22;7771;48.478;8.936;2023-11-21T07:47:10;10.10;99.90
15343;DHT22;7771;48.478;8.936;2023-11-21T07:49:36;10.10;99.90
15343;DHT22;7771;48.478;8.936;2023-11-21T07:52:03;10.10;99.90
15343;DHT22;7771;48.478;8.936;2023-11-21T07:54:31;10.10;99.90
15343;DHT22;7771;48.478;8.936;2023-11-21T07:56:58;10.10;99.90
15343;DHT22;7771;48.478;8.936;2023-11-21T07:59:24;10.00;99.90
15343;DHT22;7771;48.478;8.936;2023-11-21T08:01:52;10.00;99.90
15343;DHT22;7771;48.478;8.936;2023-11-21T08:04:20;10.00;99.90
15343;DHT22;7771;48.478;8.936;2023-11-21T08:06:48;10.00;99.90
15343;DHT22;7771;48.478;8.936;2023-11-21T08:09:15;10.10;99.90
15343;DHT22;7771;48.478;8.936;2023-11-21T08:11:42;10.00;99.90
15343;DHT22;7771;48.478;8.936;2023-11-21T08:14:09;10.10;99.90
15343;DHT22;7771;48.478;8.936;2023-11-21T08:16:36;10.10;99.90
15343;DHT22;7771;48.478;8.936;2023-11-21T08:19:03;10.10;99.90
15343;DHT22;7771;48.478;8.936;2023-11-21T08:21:31;10.20;99.90
15343;DHT22;7771;48.478;8.936;2023-11-21T08:23:57;10.20;99.90
15343;DHT22;7771;48.478;8.936;2023-11-21T08:26:25;10.20;99.90
15343;DHT22;7771;48.478;8.936;2023-11-21T08:28:51;10.30;99.90
15343;DHT22;7771;48.478;8.936;2023-11-21T08:31:26;10.30;99.90
15343;DHT22;7771;48.478;8.936;2023-11-21T08:33:53;10.30;99.90
15343;DHT22;7771;48.478;8.936;2023-11-21T08:36:22;10.40;99.90
15343;DHT22;7771;48.478;8.936;2023-11-21T08:38:50;10.40;99.90
15343;DHT22;7771;48.478;8.936;2023-11-21T08:41:17;10.40;99.90
15343;DHT22;7771;48.478;8.936;2023-11-21T08:43:44;10.40;99.90
15343;DHT22;7771;48.478;8.936;2023-11-21T08:46:10;10.50;99.90
15343;DHT22;7771;48.478;8.936;2023-11-21T08:48:37;10.50;99.90
15343;DHT22;7771;48.478;8.936;2023-11-21T08:51:04;10.60;99.90
15343;DHT22;7771;48.478;8.936;2023-11-21T08:53:31;10.60;99.90
15343;DHT22;7771;48.478;8.936;2023-11-21T08:55:58;10.70;99.90
15343;DHT22;7771;48.478;8.936;2023-11-21T08:58:24;10.70;99.90
15343;DHT22;7771;48.478;8.936;2023-11-21T09:00:51;10.70;99.90
15343;DHT22;7771;48.478;8.936;2023-11-21T09:03:18;10.70;99.90
15343;DHT22;7771;48.478;8.936;2023-11-21T09:05:46;10.70;99.90
15343;DHT22;7771;48.478;8.936;2023-11-21T09:08:14;10.80;99.90
15343;DHT22;7771;48.478;8.936;2023-11-21T09:10:40;10.80;99.90
15343;DHT22;7771;48.478;8.936;2023-11-21T09:15:36;10.90;99.90
15343;DHT22;7771;48.478;8.936;2023-11-21T09:18:03;10.90;99.90
15343;DHT22;7771;48.478;8.936;2023-11-21T09:20:30;10.90;99.90
15343;DHT22;7771;48.478;8.936;2023-11-21T09:22:58;10.90;99.90
15343;DHT22;7771;48.478;8.936;2023-11-21T09:27:53;11.00;99.90
15343;DHT22;7771;48.478;8.936;2023-11-21T09:30:19;11.00;99.90
15343;DHT22;7771;48.478;8.936;2023-11-21T09:32:48;11.10;99.90
15343;DHT22;7771;48.478;8.936;2023-11-21T09:37:44;11.10;99.90
15343;DHT22;7771;48.478;8.936;2023-11-21T09:40:11;11.20;99.90
15343;DHT22;7771;48.478;8.936;2023-11-21T09:42:39;11.20;99.90
15343;DHT22;7771;48.478;8.936;2023-11-21T09:45:15;11.30;99.90
15343;DHT22;7771;48.478;8.936;2023-11-21T09:47:36;11.20;99.90
15343;DHT22;7771;48.478;8.936;2023-11-21T09:50:04;11.30;99.90
15343;DHT22;7771;48.478;8.936;2023-11-21T09:52:31;11.40;99.90
15343;DHT22;7771;48.478;8.936;2023-11-21T09:54:58;11.40;99.90
15343;DHT22;7771;48.478;8.936;2023-11-21T09:57:25;11.50;99.90
15343;DHT22;7771;48.478;8.936;2023-11-21T09:59:53;11.60;99.90
15343;DHT22;7771;48.478;8.936;2023-11-21T10:02:22;11.60;99.90
15343;DHT22;7771;48.478;8.936;2023-11-21T10:07:16;11.60;99.90
15343;DHT22;7771;48.478;8.936;2023-11-21T10:09:43;11.70;99.90
15343;DHT22;7771;48.478;8.936;2023-11-21T10:12:10;11.70;99.90
15343;DHT22;7771;48.478;8.936;2023-11-21T10:14:37;11.80;99.90
15343;DHT22;7771;48.478;8.936;2023-11-21T10:17:03;11.80;99.90
15343;DHT22;7771;48.478;8.936;2023-11-21T10:19:31;11.80;99.90
15343;DHT22;7771;48.478;8.936;2023-11-21T10:21:58;11.80;99.90
15343;DHT22;7771;48.478;8.936;2023-11-21T10:24:25;11.90;99.90
15343;DHT22;7771;48.478;8.936;2023-11-21T10:26:52;11.80;99.90
15343;DHT22;7771;48.478;8.936;2023-11-21T10:29:18;11.80;99.90
15343;DHT22;7771;48.478;8.936;2023-11-21T10:31:48;11.70;99.90
15343;DHT22;7771;48.478;8.936;2023-11-21T10:34:14;11.80;99.90
15343;DHT22;7771;48.478;8.936;2023-11-21T10:39:09;11.70;99.90
15343;DHT22;7771;48.478;8.936;2023-11-21T10:41:36;11.70;99.90
15343;DHT22;7771;48.478;8.936;2023-11-21T10:44:04;11.70;99.90
15343;DHT22;7771;48.478;8.936;2023-11-21T10:46:30;11.70;99.90
15343;DHT22;7771;48.478;8.936;2023-11-21T10:48:57;11.80;99.90
15343;DHT22;7771;48.478;8.936;2023-11-21T10:51:25;11.90;99.90
15343;DHT22;7771;48.478;8.936;2023-11-21T10:53:52;11.90;99.90
15343;DHT22;7771;48.478;8.936;2023-11-21T10:56:20;11.90;99.90
15343;DHT22;7771;48.478;8.936;2023-11-21T11:01:14;11.90;99.90
15343;DHT22;7771;48.478;8.936;2023-11-21T11:03:52;11.80;99.90
15343;DHT22;7771;48.478;8.936;2023-11-21T11:06:19;11.80;99.90
15343;DHT22;7771;48.478;8.936;2023-11-21T11:08:48;11.80;99.90
15343;DHT22;7771;48.478;8.936;2023-11-21T11:11:15;11.80;99.90
15343;DHT22;7771;48.478;8.936;2023-11-21T11:13:43;11.90;99.90
15343;DHT22;7771;48.478;8.936;2023-11-21T11:16:11;11.90;99.90
15343;DHT22;7771;48.478;8.936;2023-11-21T11:18:38;12.00;99.90
15343;DHT22;7771;48.478;8.936;2023-11-21T11:21:10;12.00;99.90
15343;DHT22;7771;48.478;8.936;2023-11-21T11:23:44;12.10;99.90
15343;DHT22;7771;48.478;8.936;2023-11-21T11:26:15;12.20;99.90
15343;DHT22;7771;48.478;8.936;2023-11-21T11:28:43;12.20;99.90
15343;DHT22;7771;48.478;8.936;2023-11-21T11:33:51;12.20;99.90
15343;DHT22;7771;48.478;8.936;2023-11-21T11:36:18;12.10;99.90
15343;DHT22;7771;48.478;8.936;2023-11-21T11:38:46;12.20;99.90
15343;DHT22;7771;48.478;8.936;2023-11-21T11:41:12;12.10;99.90
15343;DHT22;7771;48.478;8.936;2023-11-21T11:43:39;12.10;99.90
15343;DHT22;7771;48.478;8.936;2023-11-21T11:46:06;12.10;99.90
15343;DHT22;7771;48.478;8.936;2023-11-21T11:48:34;12.00;99.90
15343;DHT22;7771;48.478;8.936;2023-11-21T11:51:03;12.00;99.90
15343;DHT22;7771;48.478;8.936;2023-11-21T11:53:37;11.90;99.90
15343;DHT22;7771;48.478;8.936;2023-11-21T11:58:44;11.80;99.90
15343;DHT22;7771;48.478;8.936;2023-11-21T12:01:11;11.80;99.90
15343;DHT22;7771;48.478;8.936;2023-11-21T12:03:38;11.70;99.90
15343;DHT22;7771;48.478;8.936;2023-11-21T12:06:05;11.70;99.90
15343;DHT22;7771;48.478;8.936;2023-11-21T12:08:32;11.80;99.90
15343;DHT22;7771;48.478;8.936;2023-11-21T12:11:00;11.80;99.90
15343;DHT22;7771;48.478;8.936;2023-11-21T12:13:27;11.80;99.90
15343;DHT22;7771;48.478;8.936;2023-11-21T12:15:54;11.70;99.90
15343;DHT22;7771;48.478;8.936;2023-11-21T12:18:20;11.70;99.90
15343;DHT22;7771;48.478;8.936;2023-11-21T12:20:47;11.70;99.90
15343;DHT22;7771;48.478;8.936;2023-11-21T12:23:15;11.70;99.90
15343;DHT22;7771;48.478;8.936;2023-11-21T12:25:42;11.70;99.90
15343;DHT22;7771;48.478;8.936;2023-11-21T12:28:11;11.70;99.90
15343;DHT22;7771;48.478;8.936;2023-11-21T12:30:37;11.80;99.90
15343;DHT22;7771;48.478;8.936;2023-11-21T12:33:06;11.80;99.90
15343;DHT22;7771;48.478;8.936;2023-11-21T12:35:33;11.80;99.90
15343;DHT22;7771;48.478;8.936;2023-11-21T12:38:02;11.90;99.90
15343;DHT22;7771;48.478;8.936;2023-11-21T12:42:58;12.00;99.90
15343;DHT22;7771;48.478;8.936;2023-11-21T12:45:25;12.00;99.90
15343;DHT22;7771;48.478;8.936;2023-11-21T12:47:54;12.00;99.90
15343;DHT22;7771;48.478;8.936;2023-11-21T12:50:23;12.00;99.90
15343;DHT22;7771;48.478;8.936;2023-11-21T12:52:50;11.90;99.90
15343;DHT22;7771;48.478;8.936;2023-11-21T12:55:17;11.80;99.90
15343;DHT22;7771;48.478;8.936;2023-11-21T13:00:12;11.80;99.90
15343;DHT22;7771;48.478;8.936;2023-11-21T13:02:42;11.70;99.90
15343;DHT22;7771;48.478;8.936;2023-11-21T13:05:10;11.70;99.90
15343;DHT22;7771;48.478;8.936;2023-11-21T13:07:42;11.70;99.90
15343;DHT22;7771;48.478;8.936;2023-11-21T13:10:09;11.70;99.90
15343;DHT22;7771;48.478;8.936;2023-11-21T13:12:42;11.70;99.90
15343;DHT22;7771;48.478;8.936;2023-11-21T13:15:10;11.70;99.90
15343;DHT22;7771;48.478;8.936;2023-11-21T13:17:36;11.70;99.90
15343;DHT22;7771;48.478;8.936;2023-11-21T13:20:05;11.70;99.90
15343;DHT22;7771;48.478;8.936;2023-11-21T13:22:32;11.60;99.90
15343;DHT22;7771;48.478;8.936;2023-11-21T13:25:00;11.60;99.90
15343;DHT22;7771;48.478;8.936;2023-11-21T13:27:26;11.70;99.90
15343;DHT22;7771;48.478;8.936;2023-11-21T13:29:54;11.70;99.90
15343;DHT22;7771;48.478;8.936;2023-11-21T13:32:22;11.70;99.90
15343;DHT22;7771;48.478;8.936;2023-11-21T13:34:50;11.80;99.90
15343;DHT22;7771;48.478;8.936;2023-11-21T13:37:19;11.80;99.90
15343;DHT22;7771;48.478;8.936;2023-11-21T13:39:46;11.90;99.90
15343;DHT22;7771;48.478;8.936;2023-11-21T13:42:13;11.90;99.90
15343;DHT22;7771;48.478;8.936;2023-11-21T13:44:41;11.90;99.90
15343;DHT22;7771;48.478;8.936;2023-11-21T13:49:35;11.80;99.90
15343;DHT22;7771;48.478;8.936;2023-11-21T13:52:02;11.80;99.90
15343;DHT22;7771;48.478;8.936;2023-11-21T13:54:29;11.80;99.90
15343;DHT22;7771;48.478;8.936;2023-11-21T13:56:55;11.90;99.90
15343;DHT22;7771;48.478;8.936;2023-11-21T14:01:51;11.80;99.90
15343;DHT22;7771;48.478;8.936;2023-11-21T14:04:20;11.80;99.90
15343;DHT22;7771;48.478;8.936;2023-11-21T14:06:49;11.80;99.90
15343;DHT22;7771;48.478;8.936;2023-11-21T14:09:17;11.80;99.90
15343;DHT22;7771;48.478;8.936;2023-11-21T14:11:55;11.70;99.90
15343;DHT22;7771;48.478;8.936;2023-11-21T14:14:22;11.70;99.90
15343;DHT22;7771;48.478;8.936;2023-11-21T14:16:49;11.70;99.90
15343;DHT22;7771;48.478;8.936;2023-11-21T14:19:16;11.70;99.90
15343;DHT22;7771;48.478;8.936;2023-11-21T14:21:44;11.60;99.90
15343;DHT22;7771;48.478;8.936;2023-11-21T14:24:11;11.60;99.90
15343;DHT22;7771;48.478;8.936;2023-11-21T14:26:40;11.60;99.90
15343;DHT22;7771;48.478;8.936;2023-11-21T14:31:36;11.50;99.90
15343;DHT22;7771;48.478;8.936;2023-11-21T14:34:01;11.50;99.90
15343;DHT22;7771;48.478;8.936;2023-11-21T14:38:56;11.50;99.90
15343;DHT22;7771;48.478;8.936;2023-11-21T14:41:23;11.50;99.90
15343;DHT22;7771;48.478;8.936;2023-11-21T14:43:50;11.50;99.90
15343;DHT22;7771;48.478;8.936;2023-11-21T14:46:16;11.50;99.90
15343;DHT22;7771;48.478;8.936;2023-11-21T14:48:44;11.50;99.90
15343;DHT22;7771;48.478;8.936;2023-11-21T14:53:57;11.40;99.90
15343;DHT22;7771;48.478;8.936;2023-11-21T14:56:25;11.50;99.90
15343;DHT22;7771;48.478;8.936;2023-11-21T14:58:55;11.50;99.90
15343;DHT22;7771;48.478;8.936;2023-11-21T15:01:23;11.50;99.90
15343;DHT22;7771;48.478;8.936;2023-11-21T15:04:05;11.50;99.90
15343;DHT22;7771;48.478;8.936;2023-11-21T15:06:33;11.50;99.90
15343;DHT22;7771;48.478;8.936;2023-11-21T15:11:47;11.50;99.90
15343;DHT22;7771;48.478;8.936;2023-11-21T15:14:14;11.40;99.90
15343;DHT22;7771;48.478;8.936;2023-11-21T15:16:43;11.30;99.90
15343;DHT22;7771;48.478;8.936;2023-11-21T15:19:10;11.30;99.90
15343;DHT22;7771;48.478;8.936;2023-11-21T15:21:37;11.30;99.90
15343;DHT22;7771;48.478;8.936;2023-11-21T15:24:04;11.20;99.90
15343;DHT22;7771;48.478;8.936;2023-11-21T15:26:31;11.20;99.90
15343;DHT22;7771;48.478;8.936;2023-11-21T15:28:59;11.10;99.90
15343;DHT22;7771;48.478;8.936;2023-11-21T15:31:25;11.20;99.90
15343;DHT22;7771;48.478;8.936;2023-11-21T15:33:55;11.10;99.90
15343;DHT22;7771;48.478;8.936;2023-11-21T15:36:23;11.10;99.90
15343;DHT22;7771;48.478;8.936;2023-11-21T15:38:50;11.10;99.90
15343;DHT22;7771;48.478;8.936;2023-11-21T15:41:17;11.10;99.90
15343;DHT22;7771;48.478;8.936;2023-11-21T15:43:44;11.10;99.90
15343;DHT22;7771;48.478;8.936;2023-11-21T15:46:11;11.10;99.90
15343;DHT22;7771;48.478;8.936;2023-11-21T15:48:38;11.10;99.90
15343;DHT22;7771;48.478;8.936;2023-11-21T15:51:04;11.00;99.90
15343;DHT22;7771;48.478;8.936;2023-11-21T15:53:31;11.00;99.90
15343;DHT22;7771;48.478;8.936;2023-11-21T15:55:58;11.00;99.90
15343;DHT22;7771;48.478;8.936;2023-11-21T15:58:26;11.00;99.90
15343;DHT22;7771;48.478;8.936;2023-11-21T16:00:54;11.00;99.90
15343;DHT22;7771;48.478;8.936;2023-11-21T16:03:21;11.00;99.90
15343;DHT22;7771;48.478;8.936;2023-11-21T16:08:16;11.00;99.90
15343;DHT22;7771;48.478;8.936;2023-11-21T16:10:43;11.10;99.90
15343;DHT22;7771;48.478;8.936;2023-11-21T16:13:10;11.00;99.90
15343;DHT22;7771;48.478;8.936;2023-11-21T16:15:36;11.00;99.90
15343;DHT22;7771;48.478;8.936;2023-11-21T16:18:04;11.00;99.90
15343;DHT22;7771;48.478;8.936;2023-11-21T16:20:31;11.00;99.90
15343;DHT22;7771;48.478;8.936;2023-11-21T16:22:59;11.00;99.90
15343;DHT22;7771;48.478;8.936;2023-11-21T16:25:26;11.00;99.90
15343;DHT22;7771;48.478;8.936;2023-11-21T16:27:53;11.00;99.90
15343;DHT22;7771;48.478;8.936;2023-11-21T16:30:20;11.00;99.90
15343;DHT22;7771;48.478;8.936;2023-11-21T16:32:47;11.00;99.90
15343;DHT22;7771;48.478;8.936;2023-11-21T16:35:14;10.90;99.90
15343;DHT22;7771;48.478;8.936;2023-11-21T16:37:41;10.80;99.90
15343;DHT22;7771;48.478;8.936;2023-11-21T16:40:08;10.70;99.90
15343;DHT22;7771;48.478;8.936;2023-11-21T16:42:34;10.70;99.90
15343;DHT22;7771;48.478;8.936;2023-11-21T16:45:02;10.60;99.90
15343;DHT22;7771;48.478;8.936;2023-11-21T16:47:29;10.60;99.90
15343;DHT22;7771;48.478;8.936;2023-11-21T16:49:57;10.60;99.90
15343;DHT22;7771;48.478;8.936;2023-11-21T16:54:51;10.60;99.90
15343;DHT22;7771;48.478;8.936;2023-11-21T16:57:19;10.60;99.90
15343;DHT22;7771;48.478;8.936;2023-11-21T16:59:46;10.60;99.90
15343;DHT22;7771;48.478;8.936;2023-11-21T17:02:13;10.60;99.90
15343;DHT22;7771;48.478;8.936;2023-11-21T17:04:41;10.60;99.90
15343;DHT22;7771;48.478;8.936;2023-11-21T17:07:07;10.50;99.90